Soldotna, AK

1:53 PM AKDT on August 27, 2014 (GMT -0800)
W. Corral PWS | Change Station
CLOSE
Current Station
Personal Weather Station
Location: Soldotna, AK
Elevation: 110 ft
Nearby Weather Stations

Elev 110 ft 60.49 °N, 151.08 °W | Updated 5 seconds ago

Overcast
Overcast
65.7 °F
Feels Like 65.7 °F
N
1.6
Wind Variable Wind from NW
Gusts 2.2 mph

Today
High -- | Low -- °F
--% Chance of Precip.
Yesterday
High -- | Low -- °F
Precip. -- in
6:46 AM 9:23 PM
Waxing Crescent, 5% visible
Pressure 29.80 in
Visibility 10.0 miles
Clouds Mostly Cloudy 8000 ft
Overcast 10000 ft
Dew Point 62 °F
Humidity 89%
Rainfall 0.07 in
Snow Depth Not available.
UV 2 out of 12
Pollen Not available.
Air Quality Not available.
Flu Activity Not available.
METAR PASX 272136Z AUTO 02004KT 10SM BKN080 OVC100 16/11 A2980 RMK AO1

More Conditions Fewer Conditions

Pressure 29.80 in
Visibility 10.0 miles
Clouds Mostly Cloudy 8000 ft
Overcast 10000 ft
Dew Point 62 °F
Humidity 89%
Rainfall 0.07 in
Snow Depth Not available.
UV 2 out of 12
Pollen Not available.
Air Quality Not available.
Flu Activity Not available.
METAR PASX 272136Z AUTO 02004KT 10SM BKN080 OVC100 16/11 A2980 RMK AO1

More Conditions Fewer Conditions

10-Day Weather Forecast

Almanac

Astronomy

Aug. 27, 2014 Rise Set
Actual Time 6:46 AM AKDT 9:23 PM AKDT
Civil Twilight 5:58 AM AKDT 10:10 PM AKDT
Nautical Twilight 4:55 AM AKDT 11:13 PM AKDT
Astronomical Twilight 3:19 AM AKDT 12:44 AM AKDT
Moon 9:36 AM AKDT 9:29 PM AKDT
Length of Visible Light 16h 11m
Length of Day
14h 37m
Tomorrow will be 5m 27s shorter.
Waxing Crescent, 5% of the Moon is Illuminated
Today
Waxing Crescent
Sep 2
First Quarter
Sep 8
Full
Sep 15
Last Quarter
Sep 24
New

Today's Extremes

State Highs State Lows

Community

WunderPhotos

Upload Photos

1,747,791 photos uploaded!

Nearby

Snow Depth

Station Depth Elevation
Cooper Lake 24 in 1200 ft
MF Bradley River 3 in 2300 ft
Summit Creek 0 in 1400 ft
Mcneil Canyon 1 in 1320 ft
Grouse Creek Divide 0 in 700 ft

Earthquake Activity

City Distance Mag. Time & Date
No recent earthquake activity has been reported nearby.
Minimum magnitude displayed is 2.5.

Coastal Water Temperatures

Place Temperature
No Stations Reporting

Nearby Weather Stations